Time;durP1;ratioP1;P1;durP2;ratioP2;P2;SDS_P1;SDS_P2;PMS_P1;PMS_P2;Temp;Humidity;BMP_temperature;BMP_pressure;BME280_temperature;BME280_humidity;BME280_pressure;Samples;Min_cycle;Max_cycle;Signal;HPM_P1;HPM_P2
2022/12/05 00:01:26;;;;;;;54.30;30.33;;;;;;;1.42;100.00;101642.19;5022235;28;20037;-56
2022/12/05 00:03:53;;;;;;;56.50;31.30;;;;;;;1.46;100.00;101643.72;5009916;28;20029;-60
2022/12/05 00:06:20;;;;;;;56.33;30.97;;;;;;;1.45;100.00;101644.66;5016676;28;20124;-60
2022/12/05 00:08:46;;;;;;;59.60;31.60;;;;;;;1.45;100.00;101655.09;5018184;28;20448;-56
2022/12/05 00:11:15;;;;;;;60.13;32.10;;;;;;;1.46;100.00;101651.56;5024362;28;20039;-61
2022/12/05 00:13:41;;;;;;;57.10;32.53;;;;;;;1.47;100.00;101653.25;5023341;28;20036;-59
2022/12/05 00:16:09;;;;;;;57.03;29.87;;;;;;;1.44;100.00;101642.94;5021469;28;20040;-56
2022/12/05 00:18:34;;;;;;;60.40;31.40;;;;;;;1.48;100.00;101654.94;5017020;28;21034;-58
2022/12/05 00:21:00;;;;;;;59.87;32.57;;;;;;;1.50;100.00;101651.38;5020930;28;20029;-60
2022/12/05 00:23:25;;;;;;;59.60;32.90;;;;;;;1.51;100.00;101658.28;5021977;28;20037;-57
2022/12/05 00:25:50;;;;;;;61.07;33.27;;;;;;;1.48;100.00;101660.16;5022616;28;20497;-56
2022/12/05 00:28:16;;;;;;;58.50;32.40;;;;;;;1.48;100.00;101654.94;5022517;28;20036;-57
2022/12/05 00:30:41;;;;;;;57.33;32.83;;;;;;;1.52;100.00;101655.59;5018907;28;20040;-59
2022/12/05 00:33:06;;;;;;;61.87;34.77;;;;;;;1.47;100.00;101650.63;5021645;28;20033;-59
2022/12/05 00:35:32;;;;;;;61.90;34.10;;;;;;;1.51;100.00;101647.84;5020051;28;20039;-60
2022/12/05 00:37:58;;;;;;;57.83;32.77;;;;;;;1.51;100.00;101645.22;5024863;28;20195;-59
2022/12/05 00:40:23;;;;;;;57.90;32.67;;;;;;;1.51;100.00;101640.84;5023591;28;20128;-58
2022/12/05 00:42:48;;;;;;;59.07;33.83;;;;;;;1.50;100.00;101640.94;5021358;28;20047;-59
2022/12/05 00:45:13;;;;;;;60.47;33.40;;;;;;;1.52;100.00;101639.09;5016871;28;20035;-58
2022/12/05 00:47:39;;;;;;;60.53;34.07;;;;;;;1.51;100.00;101642.59;5020283;28;20030;-58
2022/12/05 00:50:05;;;;;;;61.53;32.40;;;;;;;1.52;100.00;101637.31;5010725;28;20465;-58
2022/12/05 00:52:30;;;;;;;61.37;34.40;;;;;;;1.53;100.00;101640.78;5023001;28;20037;-61
2022/12/05 00:54:56;;;;;;;59.93;33.97;;;;;;;1.56;100.00;101637.97;5017682;28;20029;-57
2022/12/05 00:57:21;;;;;;;62.20;34.80;;;;;;;1.51;100.00;101640.00;5020686;28;20553;-56
2022/12/05 00:59:46;;;;;;;68.90;34.73;;;;;;;1.53;100.00;101640.78;5020421;28;20029;-60
2022/12/05 01:02:12;;;;;;;62.77;33.73;;;;;;;1.53;100.00;101636.38;5021790;28;20040;-56
2022/12/05 01:04:37;;;;;;;61.27;35.03;;;;;;;1.54;100.00;101637.22;5012576;28;20588;-57
2022/12/05 01:07:03;;;;;;;62.23;34.00;;;;;;;1.55;100.00;101637.16;5008051;28;20257;-57
2022/12/05 01:09:28;;;;;;;62.40;35.10;;;;;;;1.57;100.00;101647.50;5015498;28;20120;-58
2022/12/05 01:11:53;;;;;;;60.83;34.87;;;;;;;1.58;100.00;101649.22;5019942;28;20045;-58
2022/12/05 01:14:21;;;;;;;62.17;34.87;;;;;;;1.59;100.00;101653.53;5011789;28;20385;-56
2022/12/05 01:16:48;;;;;;;63.07;35.50;;;;;;;1.61;100.00;101655.13;5022923;28;20071;-56
2022/12/05 01:19:23;;;;;;;61.20;33.87;;;;;;;1.61;100.00;101647.28;5026689;28;20071;-56
2022/12/05 01:21:49;;;;;;;61.90;34.60;;;;;;;1.59;100.00;101656.13;5021238;28;20037;-58
2022/12/05 01:24:16;;;;;;;62.03;33.87;;;;;;;1.62;100.00;101655.94;5010669;28;20595;-59
2022/12/05 01:26:42;;;;;;;61.93;34.63;;;;;;;1.63;100.00;101662.88;5018364;28;20041;-60
2022/12/05 01:29:09;;;;;;;65.13;34.47;;;;;;;1.69;100.00;101659.94;5016923;28;20477;-58
2022/12/05 01:31:36;;;;;;;63.93;35.07;;;;;;;1.64;100.00;101659.34;5019121;28;20065;-56
2022/12/05 01:34:03;;;;;;;59.70;33.90;;;;;;;1.66;100.00;101662.72;5017204;28;20461;-59
2022/12/05 01:36:29;;;;;;;62.97;35.27;;;;;;;1.66;100.00;101657.47;5021146;28;20075;-60
2022/12/05 01:38:55;;;;;;;62.53;34.43;;;;;;;1.68;100.00;101660.84;5019569;28;20091;-57
2022/12/05 01:41:30;;;;;;;60.80;35.27;;;;;;;1.69;100.00;101662.56;5029582;28;20049;-58
2022/12/05 01:44:02;;;;;;;63.23;35.00;;;;;;;1.69;100.00;101665.19;5017435;28;20045;-57
2022/12/05 01:46:30;;;;;;;56.00;33.80;;;;;;;1.69;100.00;101667.78;5019122;28;20033;-57
2022/12/05 01:49:19;;;;;;;60.43;34.67;;;;;;;1.76;100.00;101675.31;5017643;28;20405;-58
2022/12/05 01:51:47;;;;;;;61.17;34.83;;;;;;;1.74;100.00;101675.38;5021341;28;20103;-59
2022/12/05 01:54:15;;;;;;;59.10;33.60;;;;;;;1.71;100.00;101681.63;5015293;28;20155;-57
2022/12/05 01:56:46;;;;;;;59.30;33.63;;;;;;;1.73;100.00;101684.16;5020679;28;20523;-59
2022/12/05 01:59:12;;;;;;;58.60;33.60;;;;;;;1.73;100.00;101674.53;5017370;28;20029;-58
2022/12/05 02:01:38;;;;;;;61.13;35.20;;;;;;;1.73;100.00;101678.94;5022063;28;20533;-57
2022/12/05 02:04:05;;;;;;;60.47;34.87;;;;;;;1.69;100.00;101678.25;5022534;28;20037;-57
2022/12/05 02:06:31;;;;;;;58.40;34.50;;;;;;;1.72;100.00;101683.31;5020515;28;20129;-59
2022/12/05 02:08:56;;;;;;;60.83;34.67;;;;;;;1.74;100.00;101675.38;5022148;28;20037;-59
2022/12/05 02:11:25;;;;;;;58.53;33.90;;;;;;;1.73;100.00;101684.97;5021350;28;20045;-57
2022/12/05 02:14:03;;;;;;;58.10;33.87;;;;;;;1.69;100.00;101678.25;5019820;28;20044;-55
2022/12/05 02:16:28;;;;;;;58.87;34.23;;;;;;;1.74;100.00;101686.66;5021459;28;20946;-57
2022/12/05 02:19:12;;;;;;;59.10;34.50;;;;;;;1.74;100.00;101681.44;5020598;28;20091;-60
2022/12/05 02:22:00;;;;;;;62.17;34.77;;;;;;;1.73;100.00;101674.53;5016278;28;20095;-57
2022/12/05 02:24:44;;;;;;;58.70;35.27;;;;;;;1.74;100.00;101686.66;5016415;28;20033;-58
2022/12/05 02:27:18;;;;;;;60.73;34.40;;;;;;;1.77;100.00;101677.00;5022457;28;20044;-57
2022/12/05 02:29:52;;;;;;;61.93;34.87;;;;;;;1.78;100.00;101682.13;5014699;28;20720;-58
2022/12/05 02:32:29;;;;;;;62.13;35.33;;;;;;;1.79;100.00;101677.75;5015275;28;20112;-58
2022/12/05 02:35:07;;;;;;;63.33;33.97;;;;;;;1.79;100.00;101677.75;5012839;28;20030;-56
2022/12/05 02:37:43;;;;;;;60.33;34.10;;;;;;;1.78;100.00;101670.81;5015430;28;20404;-56
2022/12/05 02:40:14;;;;;;;57.07;36.00;;;;;;;1.80;100.00;101674.19;5012148;28;20773;-57
2022/12/05 02:42:59;;;;;;;59.60;34.57;;;;;;;1.83;100.00;101668.81;5015210;28;20033;-58
2022/12/05 02:45:27;;;;;;;58.03;33.37;;;;;;;1.79;100.00;101672.50;5015655;28;20184;-58
2022/12/05 02:47:53;;;;;;;58.43;34.03;;;;;;;1.80;100.00;101671.56;5012616;28;20041;-57
2022/12/05 02:50:27;;;;;;;61.50;34.63;;;;;;;1.79;100.00;101669.91;5021651;28;20033;-57
2022/12/05 02:52:55;;;;;;;63.90;33.73;;;;;;;1.80;100.00;101674.19;5018984;28;20036;-58
2022/12/05 02:55:23;;;;;;;61.50;35.00;;;;;;;1.79;100.00;101669.91;5007845;28;20051;-57
2022/12/05 02:57:53;;;;;;;60.10;33.67;;;;;;;1.80;100.00;101674.19;5018982;28;20036;-56
2022/12/05 03:00:19;;;;;;;61.03;33.40;;;;;;;1.76;100.00;101670.06;5017907;28;20033;-57
2022/12/05 03:02:44;;;;;;;63.37;34.73;;;;;;;1.74;100.00;101680.63;5019443;28;20037;-57
2022/12/05 03:05:41;;;;;;;61.83;34.33;;;;;;;1.73;100.00;101684.97;5012900;28;20034;-54
2022/12/05 03:08:12;;;;;;;64.87;35.27;;;;;;;1.73;100.00;101687.59;5018757;28;20086;-58
2022/12/05 03:10:40;;;;;;;66.60;34.73;;;;;;;1.73;100.00;101684.97;5009439;28;20099;-57
2022/12/05 03:13:14;;;;;;;66.53;35.10;;;;;;;1.71;100.00;101671.16;5013788;28;20026;-57
2022/12/05 03:15:46;;;;;;;62.87;34.33;;;;;;;1.78;100.00;101676.06;5016253;28;20112;-56
2022/12/05 03:18:21;;;;;;;60.60;33.97;;;;;;;1.79;100.00;101677.75;5015092;28;20034;-59
2022/12/05 03:20:58;;;;;;;61.43;34.13;;;;;;;1.80;100.00;101674.19;5016015;28;20116;-56
2022/12/05 03:23:37;;;;;;;58.93;33.53;;;;;;;1.80;100.00;101674.19;5014195;28;20041;-60
2022/12/05 03:26:44;;;;;;;67.50;34.83;;;;;;;1.83;100.00;101674.03;5015463;28;20112;-56
2022/12/05 03:29:31;;;;;;;61.17;34.23;;;;;;;1.82;100.00;101672.34;5016449;28;20095;-60
2022/12/05 03:32:05;;;;;;;67.60;35.00;;;;;;;1.79;100.00;101670.75;5019401;28;20361;-57
2022/12/05 03:34:40;;;;;;;59.53;33.50;;;;;;;1.77;100.00;101669.16;5021093;28;20029;-59
2022/12/05 03:37:17;;;;;;;60.70;33.50;;;;;;;1.77;100.00;101677.00;5020675;28;20412;-60
2022/12/05 03:39:48;;;;;;;64.07;34.17;;;;;;;1.77;100.00;101677.81;5013574;28;20028;-59
2022/12/05 03:42:27;;;;;;;66.93;34.67;;;;;;;1.79;100.00;101672.50;5015034;28;20136;-57
2022/12/05 03:45:22;;;;;;;63.77;33.77;;;;;;;1.83;100.00;101680.09;5021808;28;20037;-58
2022/12/05 03:48:24;;;;;;;65.13;33.50;;;;;;;1.82;100.00;101669.75;5014806;28;20081;-57
2022/12/05 03:50:52;;;;;;;62.83;33.35;;;;;;;1.76;100.00;101672.69;5017303;28;20058;-57
2022/12/05 03:53:23;;;;;;;65.00;34.77;;;;;;;1.78;100.00;101673.44;5021019;28;20158;-57
2022/12/05 03:55:58;;;;;;;70.80;34.70;;;;;;;1.78;100.00;101676.06;5028066;28;20100;-56
2022/12/05 03:58:30;;;;;;;66.23;34.90;;;;;;;1.79;100.00;101672.50;5027164;28;20034;-58
2022/12/05 04:00:58;;;;;;;63.37;33.87;;;;;;;1.78;100.00;101674.28;5018260;28;20052;-57
2022/12/05 04:03:40;;;;;;;66.73;34.63;;;;;;;1.76;100.00;101677.91;5018844;28;20096;-57
2022/12/05 04:06:13;;;;;;;66.78;35.35;;;;;;;1.72;100.00;101672.84;5031719;28;20033;-60
2022/12/05 04:08:43;;;;;;;65.03;33.65;;;;;;;1.79;100.00;101677.75;5024555;28;20033;-57
2022/12/05 04:11:19;;;;;;;62.20;33.20;;;;;;;1.81;100.00;101686.34;5020150;28;20039;-60
2022/12/05 04:13:54;;;;;;;61.07;34.50;;;;;;;1.79;100.00;101677.75;5020064;28;20037;-57
2022/12/05 04:22:21;;;;;;;65.23;34.07;;;;;;;1.81;100.00;101689.81;5017945;28;20088;-59
2022/12/05 04:27:47;;;;;;;61.57;34.30;;;;;;;1.83;100.00;101684.50;5019827;28;20095;-58
2022/12/05 04:30:16;;;;;;;61.57;34.43;;;;;;;1.82;100.00;101683.66;5014800;28;20037;-56
2022/12/05 04:32:48;;;;;;;61.27;34.43;;;;;;;1.85;100.00;101687.88;5018402;28;20033;-56
2022/12/05 04:35:29;;;;;;;63.03;33.50;;;;;;;1.89;100.00;101699.84;5023030;28;20116;-58
2022/12/05 04:38:01;;;;;;;58.77;33.33;;;;;;;1.84;100.00;101691.41;5011909;28;20386;-58
2022/12/05 04:40:36;;;;;;;62.03;33.53;;;;;;;1.84;100.00;101689.66;5021175;28;20124;-59
2022/12/05 04:43:05;;;;;;;64.63;33.90;;;;;;;1.86;100.00;101694.78;5023375;28;20832;-56
2022/12/05 04:45:32;;;;;;;61.87;33.37;;;;;;;1.85;100.00;101698.31;5015611;28;20044;-55
2022/12/05 04:48:03;;;;;;;60.83;33.10;;;;;;;1.85;100.00;101698.31;5019487;28;20418;-57
2022/12/05 04:50:32;;;;;;;61.70;33.23;;;;;;;1.86;100.00;101698.25;5021326;28;20844;-56
2022/12/05 04:52:59;;;;;;;60.83;33.83;;;;;;;1.86;100.00;101694.78;5022558;28;20064;-61
2022/12/05 04:55:26;;;;;;;62.10;33.87;;;;;;;1.84;100.00;101696.66;5019317;28;20045;-58
2022/12/05 04:58:02;;;;;;;62.40;33.30;;;;;;;1.79;100.00;101688.19;5017548;28;20071;-59
2022/12/05 05:00:29;;;;;;;63.23;34.13;;;;;;;1.83;100.00;101694.97;5018383;28;20041;-58
2022/12/05 05:03:04;;;;;;;61.13;32.90;;;;;;;1.85;100.00;101696.56;5009782;28;20047;-56
2022/12/05 05:05:31;;;;;;;60.00;33.57;;;;;;;1.85;100.00;101683.50;5014371;28;20037;-58
2022/12/05 05:07:56;;;;;;;62.57;32.90;;;;;;;1.89;100.00;101689.41;5017059;28;20095;-57
2022/12/05 05:10:41;;;;;;;59.93;32.97;;;;;;;1.92;100.00;101696.22;5020621;28;20424;-58
2022/12/05 05:13:06;;;;;;;61.90;33.43;;;;;;;1.90;100.00;101696.31;5018194;28;20036;-58
2022/12/05 05:15:31;;;;;;;58.00;32.57;;;;;;;1.89;100.00;101689.41;5022076;28;20034;-56
2022/12/05 05:17:56;;;;;;;60.77;33.27;;;;;;;1.91;100.00;101691.94;5021727;28;20515;-60
2022/12/05 05:20:25;;;;;;;61.97;34.20;;;;;;;1.93;100.00;101701.34;5020479;28;20045;-58
2022/12/05 05:22:56;;;;;;;59.17;32.87;;;;;;;1.97;100.00;101708.13;5020788;28;20037;-59
2022/12/05 05:25:22;;;;;;;61.47;32.83;;;;;;;1.94;100.00;101710.91;5021309;28;20477;-56
2022/12/05 05:27:50;;;;;;;63.23;33.10;;;;;;;1.97;100.00;101702.88;5024976;28;20029;-60
2022/12/05 05:30:15;;;;;;;61.13;32.67;;;;;;;1.98;100.00;101703.75;5019354;28;20033;-60
2022/12/05 05:32:41;;;;;;;58.10;32.37;;;;;;;1.99;100.00;101710.66;5020825;28;20048;-58
2022/12/05 05:35:06;;;;;;;60.03;33.23;;;;;;;1.97;100.00;101709.91;5018309;28;20524;-58
2022/12/05 05:37:32;;;;;;;58.90;31.63;;;;;;;1.96;100.00;101703.81;5025130;28;20025;-58
2022/12/05 05:39:57;;;;;;;61.37;33.00;;;;;;;1.94;100.00;101700.47;5019342;28;20025;-57
2022/12/05 05:42:22;;;;;;;56.90;32.77;;;;;;;1.95;100.00;101704.75;5014162;28;20060;-59
2022/12/05 05:44:47;;;;;;;57.83;31.00;;;;;;;1.94;100.00;101703.06;5020531;28;20037;-57
2022/12/05 05:47:13;;;;;;;59.80;32.00;;;;;;;1.96;100.00;101705.59;5017931;28;20049;-59
2022/12/05 05:49:38;;;;;;;59.90;32.17;;;;;;;1.96;100.00;101701.22;5015492;28;20065;-60
2022/12/05 05:52:03;;;;;;;55.00;30.80;;;;;;;1.96;100.00;101706.44;5018066;28;20477;-57
2022/12/05 05:54:29;;;;;;;61.27;32.70;;;;;;;1.99;100.00;101706.28;5013204;28;20038;-59
2022/12/05 05:56:54;;;;;;;60.20;31.50;;;;;;;1.99;100.00;101708.91;5030800;28;20037;-60
2022/12/05 05:59:19;;;;;;;57.37;31.50;;;;;;;2.01;100.00;101719.25;5020282;28;20029;-57
2022/12/05 06:01:45;;;;;;;52.70;30.07;;;;;;;2.04;100.00;101718.25;5017128;28;20076;-57
2022/12/05 06:04:11;;;;;;;53.47;31.13;;;;;;;2.05;100.00;101715.56;5019948;28;20573;-60
2022/12/05 06:06:36;;;;;;;51.50;29.93;;;;;;;2.08;100.00;101719.78;5017450;28;20052;-58
2022/12/05 06:09:01;;;;;;;52.50;30.10;;;;;;;2.09;100.00;101714.47;5013519;28;20038;-56
2022/12/05 06:11:27;;;;;;;55.00;30.40;;;;;;;2.07;100.00;101723.34;5018132;28;20034;-58
2022/12/05 06:13:57;;;;;;;55.53;30.70;;;;;;;2.08;100.00;101719.78;5015699;28;20048;-57
2022/12/05 06:16:23;;;;;;;57.17;30.93;;;;;;;2.09;100.00;101716.22;5014114;28;20104;-56
2022/12/05 06:18:48;;;;;;;53.40;30.77;;;;;;;2.10;100.00;101720.53;5017382;28;20496;-60
2022/12/05 06:21:14;;;;;;;56.10;31.27;;;;;;;2.09;100.00;101724.09;5017217;28;20087;-60
2022/12/05 06:23:39;;;;;;;55.60;31.13;;;;;;;2.08;100.00;101722.41;5009452;28;20034;-58
2022/12/05 06:26:08;;;;;;;54.23;30.07;;;;;;;2.08;100.00;101730.25;5013107;28;20115;-57
2022/12/05 06:28:34;;;;;;;53.90;30.63;;;;;;;2.10;100.00;101723.16;5011123;28;20047;-56
2022/12/05 06:31:05;;;;;;;55.10;31.60;;;;;;;2.10;100.00;101728.38;5010224;28;20116;-55
2022/12/05 06:33:31;;;;;;;51.30;29.67;;;;;;;2.10;100.00;101725.75;5009850;28;20044;-56
2022/12/05 06:36:05;;;;;;;55.30;30.73;;;;;;;2.11;100.00;101730.06;5011594;28;20936;-58
2022/12/05 06:38:30;;;;;;;52.73;29.97;;;;;;;2.12;100.00;101727.38;5007501;28;20038;-56
2022/12/05 06:40:55;;;;;;;52.17;29.77;;;;;;;2.15;100.00;101728.97;5007333;28;20053;-56
2022/12/05 06:43:20;;;;;;;50.77;29.57;;;;;;;2.13;100.00;101723.00;5009526;28;20073;-58
2022/12/05 06:45:46;;;;;;;52.87;29.60;;;;;;;2.13;100.00;101723.00;5008939;28;20030;-57
2022/12/05 06:48:11;;;;;;;52.43;28.87;;;;;;;2.15;100.00;101728.97;5002642;28;20689;-56
2022/12/05 06:50:36;;;;;;;48.43;28.90;;;;;;;2.18;100.00;101731.44;5006227;28;20489;-58
2022/12/05 06:53:02;;;;;;;52.83;29.50;;;;;;;2.12;100.00;101718.69;5006339;28;20116;-57
2022/12/05 06:55:27;;;;;;;51.80;28.63;;;;;;;2.16;100.00;101735.91;5009054;28;20044;-57
2022/12/05 06:57:52;;;;;;;50.90;28.20;;;;;;;2.15;100.00;101728.97;5008126;28;20424;-56
2022/12/05 07:03:02;;;;;;;49.60;29.07;;;;;;;2.15;100.00;101737.69;5010653;28;20064;-55
2022/12/05 07:05:27;;;;;;;50.67;28.97;;;;;;;2.14;100.00;101740.38;5010821;28;20388;-56
2022/12/05 07:07:52;;;;;;;50.40;28.33;;;;;;;2.13;100.00;101749.16;5010628;28;20713;-58
2022/12/05 07:10:18;;;;;;;46.23;27.10;;;;;;;2.12;100.00;101747.47;5009690;28;20044;-55
2022/12/05 07:12:43;;;;;;;50.53;28.20;;;;;;;2.12;100.00;101747.47;5009019;28;20350;-57
2022/12/05 07:15:09;;;;;;;51.43;28.13;;;;;;;2.13;100.00;101755.22;5006101;28;20021;-58
2022/12/05 07:17:36;;;;;;;51.37;27.97;;;;;;;2.17;100.00;101755.91;5004409;28;20028;-57
2022/12/05 07:20:02;;;;;;;50.47;28.93;;;;;;;2.19;100.00;101755.81;5011379;28;20032;-57
2022/12/05 07:22:28;;;;;;;50.53;28.83;;;;;;;2.22;100.00;101760.91;5018856;28;20029;-58
2022/12/05 07:24:53;;;;;;;48.73;27.90;;;;;;;2.23;100.00;101765.22;5011544;28;20615;-59
2022/12/05 07:27:18;;;;;;;52.37;27.93;;;;;;;2.25;100.00;101764.19;5017686;28;20034;-57
2022/12/05 07:29:43;;;;;;;44.67;26.80;;;;;;;2.25;100.00;101769.44;5014949;28;20482;-58
2022/12/05 07:32:09;;;;;;;44.43;26.67;;;;;;;2.28;100.00;101779.72;5011950;28;20040;-57
2022/12/05 07:34:35;;;;;;;44.07;26.17;;;;;;;2.25;100.00;101779.91;5011153;28;20030;-58
2022/12/05 07:37:00;;;;;;;46.83;26.17;;;;;;;2.28;100.00;101774.47;5005186;28;20133;-60
2022/12/05 07:39:26;;;;;;;43.93;26.60;;;;;;;2.29;100.00;101781.41;5011445;28;20053;-56
2022/12/05 07:41:51;;;;;;;43.63;26.48;;;;;;;2.28;100.00;101779.72;5009388;28;20138;-59
2022/12/05 07:44:16;;;;;;;43.27;27.07;;;;;;;2.29;100.00;101773.53;5011411;28;20108;-60
2022/12/05 07:46:42;;;;;;;45.20;25.93;;;;;;;2.30;100.00;101771.78;5009401;28;20041;-58
2022/12/05 07:49:07;;;;;;;41.30;25.33;;;;;;;2.29;100.00;101776.16;5012891;28;20894;-57
2022/12/05 07:51:34;;;;;;;43.90;25.83;;;;;;;2.31;100.00;101778.69;5016591;28;20037;-59
2022/12/05 07:54:00;;;;;;;42.43;25.53;;;;;;;2.29;100.00;101781.41;5016431;28;20036;-57
2022/12/05 07:56:25;;;;;;;41.10;25.52;;;;;;;2.28;100.00;101778.88;5018582;28;20378;-59
2022/12/05 07:58:51;;;;;;;44.37;26.13;;;;;;;2.28;100.00;101782.34;5015462;28;20049;-59
2022/12/05 08:01:18;;;;;;;44.03;26.67;;;;;;;2.29;100.00;101781.41;5015575;28;20032;-59
2022/12/05 08:03:44;;;;;;;44.45;26.60;;;;;;;2.29;100.00;101785.81;5011955;28;20441;-59
2022/12/05 08:06:14;;;;;;;43.40;25.90;;;;;;;2.27;100.00;101783.28;5018337;28;20033;-56
2022/12/05 08:08:40;;;;;;;48.10;27.70;;;;;;;2.24;100.00;101793.91;5013953;28;20029;-59
2022/12/05 08:11:12;;;;;;;46.03;27.08;;;;;;;2.27;100.00;101792.91;5015322;28;20029;-61
2022/12/05 08:13:38;;;;;;;48.20;27.92;;;;;;;2.26;100.00;101792.06;5013930;28;20063;-59
2022/12/05 08:16:06;;;;;;;49.55;27.25;;;;;;;2.25;100.00;101800.84;5013479;28;20103;-61
2022/12/05 08:18:32;;;;;;;48.90;27.43;;;;;;;2.27;100.00;101803.38;5018530;28;20492;-59
2022/12/05 08:21:09;;;;;;;47.67;28.03;;;;;;;2.27;100.00;101814.69;5013867;28;20037;-59
2022/12/05 08:23:35;;;;;;;47.83;27.30;;;;;;;2.31;100.00;101804.06;5020846;28;20040;-56
2022/12/05 08:26:26;;;;;;;48.43;27.57;;;;;;;2.35;100.00;101805.56;5012435;28;20486;-60
2022/12/05 08:28:54;;;;;;;46.37;28.07;;;;;;;2.34;100.00;101811.72;5017073;28;20052;-58
2022/12/05 08:31:22;;;;;;;48.10;28.10;;;;;;;2.35;100.00;101816.03;5011391;28;20388;-57
2022/12/05 08:33:47;;;;;;;47.23;28.17;;;;;;;2.35;100.00;101816.03;5020662;28;20026;-57
2022/12/05 08:36:16;;;;;;;50.97;28.20;;;;;;;2.34;100.00;101816.97;5016262;28;20116;-59
2022/12/05 08:38:43;;;;;;;45.30;27.47;;;;;;;2.31;100.00;101815.34;5013721;28;20048;-57
2022/12/05 08:41:11;;;;;;;49.03;28.73;;;;;;;2.38;100.00;101823.72;5011530;28;20582;-61
2022/12/05 08:43:36;;;;;;;48.50;27.73;;;;;;;2.40;100.00;101819.25;5009888;28;20694;-59
2022/12/05 08:46:03;;;;;;;49.55;27.60;;;;;;;2.40;100.00;101824.47;5013223;28;20116;-56
2022/12/05 08:48:30;;;;;;;48.65;27.77;;;;;;;2.38;100.00;101813.25;5013197;28;20061;-58
2022/12/05 08:50:56;;;;;;;46.75;27.48;;;;;;;2.44;100.00;101820.78;5011226;28;20080;-59
2022/12/05 08:53:21;;;;;;;46.85;27.90;;;;;;;2.43;100.00;101824.31;5014996;28;20689;-55
2022/12/05 08:55:47;;;;;;;47.70;27.10;;;;;;;2.43;100.00;101824.31;5009645;28;20452;-60
2022/12/05 08:58:12;;;;;;;48.55;28.30;;;;;;;2.44;100.00;101818.16;5009908;28;20044;-56
2022/12/05 09:00:39;;;;;;;46.65;27.02;;;;;;;2.43;100.00;101829.56;5014349;28;20041;-57
2022/12/05 09:03:04;;;;;;;50.05;27.95;;;;;;;2.42;100.00;101833.13;5016422;28;20503;-57
2022/12/05 09:05:29;;;;;;;48.42;28.00;;;;;;;2.45;100.00;101827.69;5014696;28;20037;-58
2022/12/05 09:07:55;;;;;;;44.50;27.60;;;;;;;2.48;100.00;101838.00;5011991;28;20030;-59
2022/12/05 09:10:21;;;;;;;46.50;27.77;;;;;;;2.50;100.00;101835.28;5013650;28;20057;-58
2022/12/05 09:12:46;;;;;;;44.97;26.75;;;;;;;2.47;100.00;101836.31;5008961;28;20054;-57
2022/12/05 09:15:12;;;;;;;47.50;27.90;;;;;;;2.50;100.00;101841.38;5017932;28;20528;-57
2022/12/05 09:17:38;;;;;;;45.28;27.15;;;;;;;2.49;100.00;101849.31;5018178;28;20477;-57
2022/12/05 09:20:05;;;;;;;45.67;26.80;;;;;;;2.50;100.00;101838.78;5010613;28;20041;-61
2022/12/05 09:22:31;;;;;;;45.88;26.25;;;;;;;2.52;100.00;101844.75;5014123;28;20166;-56
2022/12/05 09:24:57;;;;;;;47.28;27.77;;;;;;;2.52;100.00;101847.38;5014322;28;20115;-59
2022/12/05 09:27:22;;;;;;;46.90;27.50;;;;;;;2.54;100.00;101845.53;5014925;28;20045;-57
2022/12/05 09:29:47;;;;;;;45.53;27.02;;;;;;;2.57;100.00;101851.53;5026254;28;20124;-60
2022/12/05 09:32:13;;;;;;;45.33;27.17;;;;;;;2.58;100.00;101855.81;5018242;28;20075;-56
2022/12/05 09:34:38;;;;;;;44.60;26.40;;;;;;;2.55;100.00;101855.06;5021738;28;20614;-60
2022/12/05 09:37:05;;;;;;;44.00;26.30;;;;;;;2.54;100.00;101857.78;5021333;28;20036;-57
2022/12/05 09:39:30;;;;;;;46.40;26.65;;;;;;;2.51;100.00;101864.03;5017049;28;20065;-61
2022/12/05 09:42:06;;;;;;;46.05;26.17;;;;;;;2.54;100.00;101863.88;5017924;28;20054;-61
2022/12/05 09:44:53;;;;;;;46.28;26.30;;;;;;;2.55;100.00;101860.31;5018077;28;20833;-57
2022/12/05 09:47:37;;;;;;;41.83;25.37;;;;;;;2.56;100.00;101866.38;5012203;28;20685;-60
2022/12/05 09:50:27;;;;;;;46.22;26.23;;;;;;;2.57;100.00;101864.63;5020897;28;20405;-57
2022/12/05 09:53:15;;;;;;;42.88;24.90;;;;;;;2.58;100.00;101869.78;5016734;28;20033;-57
2022/12/05 09:55:52;;;;;;;42.42;25.58;;;;;;;2.54;100.00;101863.88;5020490;28;20035;-56
2022/12/05 09:58:26;;;;;;;42.88;24.80;;;;;;;2.57;100.00;101867.22;5021543;28;20087;-57
2022/12/05 10:00:59;;;;;;;42.70;26.00;;;;;;;2.57;100.00;101877.72;5023156;28;20041;-58
2022/12/05 10:03:32;;;;;;;38.90;24.87;;;;;;;2.57;100.00;101867.22;5015351;28;20065;-56
2022/12/05 10:06:22;;;;;;;40.47;23.90;;;;;;;2.60;100.00;101872.28;5022506;28;20059;-56
2022/12/05 10:09:18;;;;;;;37.42;23.10;;;;;;;2.62;100.00;101870.44;5021165;28;20037;-58
2022/12/05 10:11:48;;;;;;;35.63;21.70;;;;;;;2.60;100.00;101864.44;5017282;28;20032;-57
2022/12/05 10:14:24;;;;;;;33.77;21.07;;;;;;;2.58;100.00;101863.69;5021964;28;20069;-58
2022/12/05 10:16:55;;;;;;;35.73;21.90;;;;;;;2.57;100.00;101867.22;5014679;28;20058;-57
2022/12/05 10:19:36;;;;;;;37.25;22.38;;;;;;;2.58;100.00;101859.31;5008977;28;20091;-57
2022/12/05 10:22:22;;;;;;;33.55;20.33;;;;;;;2.64;100.00;101864.19;5017557;28;20029;-56
2022/12/05 10:24:55;;;;;;;32.28;19.90;;;;;;;2.63;100.00;101861.66;5018327;28;21823;-58
2022/12/05 10:27:32;;;;;;;29.70;18.55;;;;;;;2.63;100.00;101861.66;5014300;28;20026;-58
2022/12/05 10:30:20;;;;;;;28.55;17.30;;;;;;;2.63;100.00;101867.75;5021140;28;20063;-56
2022/12/05 10:32:58;;;;;;;28.45;17.40;;;;;;;2.60;100.00;101867.91;5015325;28;20124;-58
2022/12/05 10:35:35;;;;;;;26.90;16.55;;;;;;;2.60;100.00;101867.91;5022602;28;20055;-57
2022/12/05 10:38:10;;;;;;;26.02;16.65;;;;;;;2.60;100.00;101867.91;5021897;28;20047;-56
2022/12/05 10:40:42;;;;;;;26.38;16.77;;;;;;;2.61;100.00;101871.38;5014269;28;20073;-57
2022/12/05 10:43:13;;;;;;;25.45;16.42;;;;;;;2.62;100.00;101865.22;5028662;28;20076;-57
2022/12/05 10:45:42;;;;;;;26.38;16.33;;;;;;;2.62;100.00;101866.03;5008001;28;20035;-56
2022/12/05 10:48:11;;;;;;;25.40;16.67;;;;;;;2.58;100.00;101863.69;5008643;28;20032;-58
2022/12/05 10:50:38;;;;;;;25.15;16.00;;;;;;;2.61;100.00;101871.38;5012521;28;20040;-57
2022/12/05 10:53:05;;;;;;;25.23;16.27;;;;;;;2.59;100.00;101870.59;5009311;28;20072;-57
2022/12/05 10:55:39;;;;;;;26.60;16.52;;;;;;;2.61;100.00;101874.00;5009470;28;20038;-60
2022/12/05 10:58:12;;;;;;;24.85;16.27;;;;;;;2.64;100.00;101871.19;5006863;28;20052;-60
2022/12/05 11:00:43;;;;;;;24.20;15.93;;;;;;;2.65;100.00;101870.28;5008754;28;20501;-57
2022/12/05 11:03:25;;;;;;;24.75;16.45;;;;;;;2.68;100.00;101880.59;5006245;28;20025;-60
2022/12/05 11:05:52;;;;;;;25.17;15.90;;;;;;;2.65;100.00;101868.50;5010152;28;20048;-59
2022/12/05 11:08:27;;;;;;;24.98;16.30;;;;;;;2.68;100.00;101870.94;5001676;28;20507;-57
2022/12/05 11:11:20;;;;;;;25.88;15.98;;;;;;;2.68;100.00;101864.88;5006891;28;20091;-58
2022/12/05 11:13:59;;;;;;;25.13;17.15;;;;;;;2.64;100.00;101861.59;5000641;28;20033;-60
2022/12/05 11:16:34;;;;;;;25.20;16.55;;;;;;;2.67;100.00;101863.19;5005408;28;20120;-60
2022/12/05 11:19:31;;;;;;;26.33;16.92;;;;;;;2.76;100.00;101857.44;5002705;28;20478;-56
2022/12/05 11:21:58;;;;;;;25.27;16.77;;;;;;;2.73;100.00;101854.13;5009608;28;20470;-59
2022/12/05 11:24:32;;;;;;;27.67;17.02;;;;;;;2.77;100.00;101853.88;5004458;28;20034;-58
2022/12/05 11:27:31;;;;;;;27.23;17.33;;;;;;;2.78;100.00;101857.34;5010706;28;20120;-56
2022/12/05 11:30:00;;;;;;;25.98;16.80;;;;;;;2.74;100.00;101856.69;5017577;28;20140;-56
2022/12/05 11:32:30;;;;;;;25.25;17.00;;;;;;;2.72;100.00;101855.94;5005886;28;20065;-57
2022/12/05 11:34:57;;;;;;;26.75;17.65;;;;;;;2.76;100.00;101859.22;5017438;28;20036;-60